Latest Weather Observations for Goulburn Airport

IDN60901

Issued at 2:02 pm EDT Saturday 16 October 2021 (issued every 10 minutes, with the page automatically refreshed every 10 minutes)

About weather observations | Map of Canberra area stations | Latest observations for Canberra area | Other Formats
Station Details ID: 070330 Name: GOULBURN AIRPORT AWS Lat: -34.81 Lon: 149.73 Height: 640.0 m
Data from the previous 72 hours. | See also: Recent months at Goulburn Airport
Date/Time
EDT
Temp
°C
App
Temp
°C
Dew
Point
°C
Rel
Hum
%
Delta-T
°C
Wind Press
QNH
hPa
Press
MSL
hPa
Rain since
9am
mm
Dir  Spd
km/h
Gust
km/h
Spd
kts
Gust
kts
16/02:00pm 12.8 5.9 8.9 77 2.0 WNW 35 46 19 25 1005.3 1004.3 0.0
16/01:40pm 11.4 4.0 8.4 82 1.5 WNW 37 56 20 30 1005.3 1004.3 0.0
16/01:30pm 11.2 3.7 9.3 88 1.0 WNW 39 52 21 28 1005.4 1004.4 0.0
16/01:00pm 11.0 3.4 7.7 80 1.7 WNW 37 57 20 31 1005.3 1004.3 0.0
16/12:30pm 10.3 2.3 7.4 82 1.4 WNW 39 57 21 31 1005.1 1004.1 0.0
16/12:00pm 10.5 3.0 8.1 85 1.2 WNW 37 57 20 31 1005.0 1004.0 0.0
16/11:30am 9.8 1.7 6.9 82 1.4 WNW 39 57 21 31 1005.1 1004.1 0.0
16/11:25am 9.8 1.7 7.1 83 1.3 WNW 39 57 21 31 1005.0 1004.0 0.0
16/11:00am 9.6 2.7 7.4 86 1.1 WNW 33 46 18 25 1005.1 1004.1 0.0
16/10:38am 9.1 3.1 6.9 86 1.1 WNW 28 46 15 25 1005.2 1004.2 0.0
16/10:30am 9.0 3.7 7.0 87 1.0 WNW 24 41 13 22 1005.1 1004.1 0.0
16/10:00am 8.5 2.8 6.8 89 0.8 WNW 26 41 14 22 1005.1 1004.1 0.0
16/09:30am 8.4 2.0 6.9 90 0.7 WNW 30 46 16 25 1005.0 1004.0 0.0
16/09:00am 7.8 2.4 6.4 91 0.7 NW 24 33 13 18 1004.6 1003.7 0.8
16/08:30am 7.9 1.1 6.8 93 0.5 WNW 32 46 17 25 1004.5 1003.6 0.8
16/08:11am 7.8 0.4 6.7 93 0.5 WNW 35 54 19 29 1003.8 1002.8 0.8
16/08:00am 7.8 0.0 6.6 92 0.6 WNW 37 52 20 28 1003.5 1002.5 0.8
16/07:30am 7.5 -1.1 6.3 92 0.6 WNW 41 56 22 30 1003.0 1002.1 0.8
16/07:00am 7.4 -1.8 6.2 92 0.6 WNW 44 67 24 36 1002.5 1001.5 0.8
16/06:53am 7.4 0.3 6.2 92 0.6 WNW 33 67 18 36 1002.5 1001.5 0.8
16/06:30am 7.2 1.8 6.3 94 0.4 W 24 37 13 20 1002.6 1001.6 0.8
16/06:00am 7.1 0.5 6.0 93 0.5 W 30 43 16 23 1001.9 1000.9 0.8
16/05:30am 6.9 -0.1 5.8 93 0.5 WNW 32 43 17 23 1001.9 1000.9 0.8
16/05:00am 6.8 -0.4 5.9 94 0.4 WNW 33 46 18 25 1001.4 1000.4 0.8
16/04:30am 7.3 1.5 6.2 93 0.5 WNW 26 37 14 20 1001.3 1000.3 0.6
16/04:05am 7.4 1.2 6.3 93 0.5 WNW 28 35 15 19 1001.3 1000.3 0.6
16/04:00am 7.4 1.6 6.2 92 0.6 WNW 26 37 14 20 1001.3 1000.3 0.4
16/03:43am 7.5 0.3 6.0 90 0.7 WNW 33 48 18 26 1001.6 1000.5 0.4
16/03:32am 7.5 0.5 6.0 90 0.7 WNW 32 50 17 27 1001.6 1000.5 0.4
16/03:30am 7.5 0.9 6.1 91 0.7 WNW 30 41 16 22 1001.7 1000.7 0.4
16/03:00am 7.7 1.5 6.0 89 0.8 WNW 28 41 15 22 1001.8 1000.8 0.2
16/02:38am 8.0 1.3 5.6 85 1.1 WNW 30 50 16 27 1002.0 1001.0 0.2
16/02:30am 8.1 1.0 5.7 85 1.1 WNW 32 48 17 26 1002.2 1001.2 0.2
16/02:08am 8.2 1.9 5.8 85 1.1 WNW 28 46 15 25 1002.4 1001.4 0.2
16/02:00am 8.2 1.6 6.0 86 1.0 WNW 30 43 16 23 1002.4 1001.4 0.2
16/01:31am 8.2 1.6 6.0 86 1.0 WNW 30 48 16 26 1002.6 1001.6 0.2
16/01:30am 8.2 1.6 6.0 86 1.0 WNW 30 39 16 21 1002.6 1001.6 0.2
16/01:15am 8.4 1.4 5.9 84 1.2 WNW 32 52 17 28 1002.6 1001.6 0.2
16/01:09am 8.3 2.0 5.9 85 1.1 WNW 28 43 15 23 1002.6 1001.6 0.2
16/01:00am 8.1 1.5 6.1 87 1.0 WNW 30 39 16 21 1002.5 1001.5 0.2
16/12:30am 7.5 1.9 5.3 86 1.0 WNW 24 33 13 18 1002.7 1001.7 0.2
16/12:19am 7.3 1.2 4.8 84 1.1 WNW 26 35 14 19 1002.8 1001.8 0.2
16/12:00am 7.3 2.6 5.0 85 1.1 WNW 19 26 10 14 1003.1 1002.2 0.2
 
Date/Time
EDT
Temp
°C
App
Temp
°C
Dew
Point
°C
Rel
Hum
%
Delta-T
°C
Wind Press
QNH
hPa
Press
MSL
hPa
Rain since
9am
mm
Dir  Spd
km/h
Gust
km/h
Spd
kts
Gust
kts
15/11:30pm 8.3 2.4 5.8 84 1.2 WNW 26 39 14 21 1003.5 1002.5 0.2
15/11:24pm 8.4 2.1 5.9 84 1.2 WNW 28 41 15 22 1003.6 1002.6 0.2
15/11:00pm 8.2 4.5 6.2 87 1.0 NW 15 22 8 12 1003.8 1002.8 0.2
15/10:32pm 7.6 2.4 5.7 88 0.9 WNW 22 30 12 16 1003.8 1002.8 0.2
15/10:30pm 7.6 2.4 5.7 88 0.9 WNW 22 30 12 16 1003.8 1002.8 0.2
15/10:00pm 8.3 2.5 6.1 86 1.0 WNW 26 35 14 19 1003.8 1002.8 0.2
15/09:30pm 8.7 2.9 6.3 85 1.1 WNW 26 37 14 20 1003.8 1002.8 0.2
15/09:07pm 8.1 4.4 6.4 89 0.8 WNW 15 20 8 11 1003.7 1002.7 0.2
15/09:00pm 7.8 4.4 5.9 88 0.9 WNW 13 20 7 11 1003.5 1002.5 0.2
15/08:30pm 7.4 2.8 5.4 87 0.9 WNW 19 24 10 13 1003.0 1002.1 0.2
15/08:00pm 7.8 2.9 5.3 84 1.2 WNW 20 30 11 16 1002.8 1001.8 0.2
15/07:30pm 7.8 3.8 4.9 82 1.3 W 15 20 8 11 1002.8 1001.8 0.2
15/07:00pm 9.3 2.8 4.7 73 2.1 W 28 41 15 22 1002.1 1001.1 0.2
15/06:30pm 9.9 3.1 4.9 71 2.3 WNW 30 41 16 22 1001.7 1000.7 0.2
15/06:00pm 10.4 4.9 6.0 74 2.1 W 24 32 13 17 1001.2 1000.2 0.2
15/05:30pm 10.7 4.9 6.1 73 2.2 WNW 26 32 14 17 1001.2 1000.2 0.2
15/05:00pm 9.5 1.6 6.4 81 1.5 W 37 56 20 30 1000.9 999.9 0.2
15/04:58pm 9.7 1.8 6.1 78 1.7 W 37 56 20 30 1000.8 999.8 0.2
15/04:56pm 10.2 3.1 6.5 78 1.8 W 33 50 18 27 1000.8 999.8 0.2
15/04:30pm 12.7 8.4 9.3 80 1.8 WNW 22 32 12 17 1000.3 999.2 0.2
15/04:00pm 11.4 5.6 6.3 71 2.5 WNW 26 35 14 19 1000.2 999.1 0.2
15/03:58pm 11.4 5.2 6.1 70 2.6 WNW 28 46 15 25 1000.2 999.1 0.2
15/03:30pm 13.4 6.5 7.2 66 3.1 WNW 33 46 18 25 1000.0 998.9 0.2
15/03:00pm 12.8 7.0 6.2 64 3.3 WNW 26 37 14 20 1000.2 999.1 0.2
15/02:30pm 11.8 4.6 5.2 64 3.2 NW 32 46 17 25 1000.8 999.8 0.2
15/02:00pm 11.2 4.0 5.7 69 2.7 NW 33 48 18 26 1000.8 999.8 0.2
15/01:57pm 11.0 4.7 5.5 69 2.6 NW 28 48 15 26 1000.8 999.8 0.2
15/01:30pm 9.7 3.5 6.2 79 1.7 NW 28 39 15 21 1001.1 1000.1 0.2
15/01:05pm 10.6 1.5 5.8 72 2.3 WNW 43 61 23 33 1001.1 1000.1 0.2
15/01:00pm 11.2 1.8 5.3 67 2.8 WNW 44 61 24 33 1001.0 1000.0 0.2
15/12:47pm 14.1 4.6 4.9 54 4.4 WNW 44 63 24 34 1000.4 999.4 0.2
15/12:30pm 14.2 6.4 5.0 54 4.5 W 35 48 19 26 1000.4 999.4 0.0
15/12:00pm 14.6 7.3 7.4 62 3.7 WNW 35 44 19 24 1000.4 999.4 0.0
15/11:30am 14.0 6.1 6.4 60 3.8 WNW 37 50 20 27 1001.1 1000.1 0.0
15/11:00am 13.2 5.7 6.5 64 3.3 WNW 35 44 19 24 1001.8 1000.8 0.0
15/10:48am 12.8 6.2 6.2 64 3.2 NW 30 48 16 26 1002.0 1001.0 0.0
15/10:30am 12.0 7.5 7.1 72 2.4 NW 20 37 11 20 1002.3 1001.3 0.0
15/10:00am 9.9 5.7 5.9 76 1.9 NNW 17 22 9 12 1003.0 1002.1 0.0
15/09:30am 9.3 5.5 5.9 79 1.6 NW 15 20 8 11 1003.4 1002.4 0.0
15/09:00am 7.9 4.8 5.4 84 1.2 NNW 11 15 6 8 1003.5 1002.5 35.8
15/08:30am 7.6 2.7 5.2 85 1.1 N 20 28 11 15 1003.7 1002.7 35.8
15/08:00am 7.4 2.5 5.2 86 1.0 N 20 30 11 16 1004.0 1003.0 35.8
15/07:30am 7.4 1.8 5.5 88 0.9 NNW 24 39 13 21 1004.7 1003.8 35.8
15/07:16am 7.6 0.8 5.2 85 1.1 N 30 41 16 22 1005.2 1004.2 35.6
15/07:00am 7.8 3.5 5.4 85 1.1 N 17 22 9 12 1004.5 1003.6 35.4
15/06:30am 7.8 3.2 5.4 85 1.1 N 19 24 10 13 1004.3 1003.3 35.4
15/06:00am 6.3 2.1 5.7 96 0.3 NE 17 22 9 12 1004.1 1003.1 35.4
15/05:30am 5.9 2.4 5.6 98 0.1 NE 13 19 7 10 1004.1 1003.1 35.4
15/05:00am 5.5 3.0 4.5 93 0.4 W 7 11 4 6 1003.4 1002.4 35.4
15/04:30am 6.2 3.4 5.3 94 0.4 W 9 13 5 7 1004.0 1003.0 35.4
15/04:00am 5.8 1.8 4.8 93 0.5 W 15 17 8 9 1004.3 1003.3 35.0
15/03:30am 6.9 2.3 5.5 91 0.6 WSW 19 26 10 14 1004.5 1003.6 35.0
15/03:28am 7.0 2.4 5.6 91 0.6 WSW 19 26 10 14 1004.4 1003.5 35.0
15/03:00am 7.7 3.1 6.6 93 0.5 W 20 32 11 17 1004.6 1003.7 35.0
15/02:51am 7.9 3.4 7.1 95 0.4 WNW 20 26 11 14 1005.2 1004.2 35.0
15/02:30am 7.9 3.0 7.0 94 0.4 W 22 32 12 17 1004.4 1003.5 35.0
15/02:00am 8.4 4.4 8.3 99 0.1 WNW 19 24 10 13 1004.5 1003.6 35.0
15/01:30am 7.5 3.1 7.4 99 0.0 WNW 20 26 11 14 1004.8 1003.9 35.0
15/01:00am 7.4 4.3 7.3 99 0.0 NNW 13 15 7 8 1003.9 1002.9 35.0
15/12:30am 8.1 5.9 8.0 99 0.0 NNW 9 17 5 9 1003.7 1002.7 35.0
15/12:28am 7.7 5.8 7.6 99 0.0 NNW 7 15 4 8 1003.7 1002.7 35.0
15/12:00am 6.6 4.5 6.5 99 0.0 NNW 7 9 4 5 1003.7 1002.7 35.0
 
Date/Time
EDT
Temp
°C
App
Temp
°C
Dew
Point
°C
Rel
Hum
%
Delta-T
°C
Wind Press
QNH
hPa
Press
MSL
hPa
Rain since
9am
mm
Dir  Spd
km/h
Gust
km/h
Spd
kts
Gust
kts
14/11:30pm 7.6 5.9 7.5 99 0.0 NNW 6 9 3 5 1003.9 1002.9 35.0
14/11:26pm 7.8 6.5 7.7 99 0.0 NNW 4 7 2 4 1003.9 1002.9 35.0
14/11:00pm 8.4 6.3 8.3 99 0.1 NNW 9 9 5 5 1004.3 1003.3 35.0
14/10:30pm 9.1 6.7 8.8 98 0.2 NNW 11 13 6 7 1004.8 1003.9 35.0
14/10:00pm 10.2 8.2 10.1 99 0.1 NNW 11 15 6 8 1005.1 1004.1 35.0
14/09:30pm 10.1 8.6 9.0 93 0.6 NNW 7 9 4 5 1005.5 1004.5 35.0
14/09:00pm 11.8 8.7 10.2 90 0.9 WNW 17 22 9 12 1005.8 1004.9 35.0
14/08:30pm 11.5 9.6 10.6 94 0.5 WNW 11 15 6 8 1005.6 1004.6 34.8
14/08:00pm 11.3 9.6 10.0 92 0.7 W 9 13 5 7 1005.2 1004.2 34.8
14/07:30pm 13.2 10.9 11.6 90 0.9 WNW 15 20 8 11 1004.7 1003.8 34.8
14/07:00pm 14.3 15.1 12.7 90 0.9 CALM 0 0 0 0 1004.2 1003.2 34.8
14/06:30pm 15.6 16.1 12.9 84 1.5 N 2 7 1 4 1003.9 1002.9 34.8
14/06:00pm 16.8 17.8 13.1 79 2.1 CALM 0 0 0 0 1003.8 1002.8 34.8
14/05:30pm 16.2 17.3 13.5 84 1.6 CALM 0 0 0 0 1003.5 1002.5 34.8
14/05:00pm 15.3 16.0 13.5 89 1.0 SE 2 7 1 4 1003.3 1002.3 34.8
14/04:30pm 14.9 15.1 14.6 98 0.2 S 7 9 4 5 1003.5 1002.5 34.8
14/04:00pm 13.5 13.2 13.3 99 0.1 S 7 19 4 10 1004.1 1003.1 34.8
14/03:50pm 12.8 11.1 12.6 99 0.1 SSE 13 15 7 8 1003.7 1002.7 34.6
14/03:35pm 12.7 11.4 12.4 98 0.2 E 11 15 6 8 1004.3 1003.3 33.4
14/03:30pm 12.6 11.6 12.4 99 0.1 E 9 11 5 6 1004.3 1003.3 33.2
14/03:29pm 12.7 12.2 12.5 99 0.1 E 7 9 4 5 1004.2 1003.2 33.2
14/03:17pm 12.7 12.7 12.4 98 0.2 ENE 4 9 2 5 1004.3 1003.3 33.2
14/03:01pm 13.1 11.5 12.8 98 0.2 SE 13 22 7 12 1004.6 1003.7 28.0
14/03:00pm 13.1 11.5 12.8 98 0.2 SE 13 22 7 12 1004.5 1003.6 28.0
14/02:49pm 12.7 11.7 12.4 98 0.2 S 9 17 5 9 1005.1 1004.1 26.6
14/02:42pm 12.6 11.3 12.4 99 0.1 SSE 11 17 6 9 1004.5 1003.6 24.8
14/02:32pm 13.3 13.1 13.1 99 0.1 S 6 15 3 8 1004.7 1003.8 24.6
14/02:31pm 13.5 13.4 13.3 99 0.1 SSW 6 15 3 8 1004.8 1003.9 24.6
14/02:30pm 13.5 13.2 13.3 99 0.1 SW 7 15 4 8 1005.0 1004.0 24.6
14/02:21pm 13.0 11.8 12.8 99 0.1 SW 11 17 6 9 1004.5 1003.6 24.2
14/02:00pm 12.8 11.8 12.3 97 0.3 WSW 9 13 5 7 1005.0 1004.0 24.2
14/01:53pm 12.7 12.0 11.9 95 0.4 WNW 7 13 4 7 1005.0 1004.0 24.2
14/01:48pm 12.5 11.8 11.4 93 0.6 NW 6 13 3 7 1005.1 1004.1 24.2
14/01:30pm 12.1 10.0 8.4 78 1.9 SE 9 22 5 12 1005.9 1005.0 20.6
14/01:25pm 14.9 12.8 9.9 72 2.7 ENE 11 22 6 12 1005.5 1004.5 9.0
14/01:05pm 16.0 12.3 10.3 69 3.1 NE 20 35 11 19 1005.5 1004.5 0.0
14/01:00pm 16.1 11.8 10.6 70 3.0 NE 24 35 13 19 1005.6 1004.6 0.0
14/12:30pm 16.5 11.8 10.6 68 3.2 ENE 26 32 14 17 1006.2 1005.3 0.0
14/12:00pm 16.5 13.2 10.8 69 3.2 NE 19 30 10 16 1007.0 1006.0 0.0
14/11:30am 16.5 14.6 11.9 74 2.6 ENE 13 26 7 14 1007.4 1006.5 0.0
14/11:23am 15.5 13.0 10.9 74 2.5 ENE 15 20 8 11 1007.7 1006.8 0.0
14/11:03am 15.0 14.7 11.6 80 1.9 ESE 4 9 2 5 1008.4 1007.4 0.0
14/11:00am 14.5 14.3 10.3 76 2.3 ESE 2 9 1 5 1008.5 1007.6 0.0
14/10:30am 13.7 13.3 9.7 77 2.1 ESE 2 9 1 5 1008.8 1007.9 0.0
14/10:00am 13.0 11.8 10.4 84 1.4 E 7 9 4 5 1009.2 1008.3 0.0
14/09:30am 12.0 11.9 9.4 84 1.4 CALM 0 4 0 2 1009.7 1008.8 0.0
14/09:00am 11.7 11.6 9.4 86 1.2 CALM 0 0 0 0 1010.2 1009.3 -
14/08:30am 12.3 9.8 11.2 93 0.6 SE 15 19 8 10 1009.1 1008.2 -
14/08:00am 10.2 6.9 9.4 95 0.4 W 17 24 9 13 1010.4 1009.5 -
14/07:30am 10.9 10.1 9.7 92 0.6 N 4 9 2 5 1009.9 1009.0 -
14/07:06am 11.1 8.5 9.4 89 0.9 WNW 13 17 7 9 1009.5 1008.6 -
14/07:00am 11.2 8.2 9.3 88 1.0 WNW 15 24 8 13 1009.5 1008.6 -
14/06:53am 11.6 7.3 9.5 87 1.1 WNW 22 33 12 18 1009.4 1008.5 -
14/06:44am 11.7 9.3 11.4 98 0.2 N 15 33 8 18 1009.0 1008.1 -
14/06:35am 11.3 9.2 11.0 98 0.2 NNE 13 17 7 9 1008.4 1007.4 -
14/06:34am 11.3 9.2 11.0 98 0.2 NNE 13 17 7 9 1008.4 1007.4 -
14/06:30am 11.2 9.0 10.9 98 0.2 NNE 13 17 7 9 1008.4 1007.4 -
14/06:00am 11.3 9.9 10.8 97 0.3 NE 9 15 5 8 1008.7 1007.8 -
14/05:30am 11.1 10.2 10.8 98 0.2 ENE 6 9 3 5 1008.5 1007.6 -
14/05:00am 11.0 9.9 10.7 98 0.2 NE 7 11 4 6 1008.3 1007.3 -
14/04:30am 10.8 9.2 10.3 97 0.3 NNE 9 13 5 7 1008.3 1007.3 -
14/04:00am 11.5 9.7 10.7 95 0.4 NNE 11 17 6 9 1008.1 1007.2 -
14/03:30am 11.5 8.5 10.7 95 0.4 NNE 17 26 9 14 1008.7 1007.8 -
14/03:00am 11.7 8.4 10.9 95 0.4 NNE 19 26 10 14 1008.9 1008.0 0.0
14/02:30am 11.9 8.1 11.1 95 0.4 NNE 22 35 12 19 1009.3 1008.4 -
14/02:00am 12.0 7.9 11.4 96 0.3 NE 24 39 13 21 1009.4 1008.5 -
14/01:30am 12.0 8.3 11.4 96 0.3 NNE 22 30 12 16 1010.2 1009.3 -
14/01:00am 12.1 8.0 11.3 95 0.4 NE 24 35 13 19 1010.5 1009.6 -
14/12:30am 12.3 8.6 11.4 94 0.5 NNE 22 32 12 17 1011.1 1010.3 -
14/12:00am 12.3 7.4 11.4 94 0.5 NE 28 41 15 22 1011.0 1010.1 -
 
Date/Time
EDT
Temp
°C
App
Temp
°C
Dew
Point
°C
Rel
Hum
%
Delta-T
°C
Wind Press
QNH
hPa
Press
MSL
hPa
Rain since
9am
mm
Dir  Spd
km/h
Gust
km/h
Spd
kts
Gust
kts
13/11:30pm 12.3 7.1 11.5 95 0.4 NE 30 41 16 22 1011.4 1010.6 -
13/11:00pm 12.2 7.7 11.4 95 0.4 NE 26 35 14 19 1011.8 1010.9 -
13/10:30pm 12.2 8.4 11.3 94 0.5 NE 22 30 12 16 1012.1 1011.2 -
13/10:00pm 12.4 8.6 11.1 92 0.7 NE 22 32 12 17 1012.4 1011.5 -
13/09:30pm 12.5 9.1 11.2 92 0.7 NE 20 32 11 17 1012.6 1011.8 -
13/09:00pm 12.5 8.3 11.1 91 0.8 NE 24 33 13 18 1012.6 1011.8 0.0
13/08:30pm 12.5 9.2 10.9 90 0.9 NE 19 30 10 16 1012.4 1011.5 -
13/08:00pm 12.5 9.7 11.2 92 0.7 ENE 17 22 9 12 1012.2 1011.3 -
13/07:30pm 12.4 9.5 11.1 92 0.7 ENE 17 24 9 13 1012.2 1011.3 -
13/07:00pm 12.3 10.6 11.2 93 0.6 E 11 19 6 10 1012.1 1011.2 -
13/06:35pm 12.4 9.1 11.0 91 0.8 E 19 26 10 14 1012.0 1011.1 -
13/06:30pm 12.5 9.2 10.9 90 0.9 E 19 26 10 14 1012.1 1011.2 -
13/06:15pm 12.5 9.2 10.9 90 0.9 ENE 19 26 10 14 1012.1 1011.2 -
13/06:00pm 12.6 9.1 11.0 90 0.9 E 20 28 11 15 1012.1 1011.2 -
13/05:30pm 13.1 9.8 10.8 86 1.2 ENE 19 24 10 13 1012.4 1011.5 -
13/05:00pm 12.8 9.4 10.7 87 1.1 E 19 32 10 17 1012.4 1011.5 -
13/04:30pm 12.6 8.7 10.7 88 1.0 E 22 28 12 15 1012.5 1011.7 -
13/04:00pm 12.2 9.0 10.1 87 1.1 E 17 22 9 12 1012.8 1012.0 -
13/03:30pm 12.2 8.3 9.6 84 1.4 E 20 26 11 14 1013.0 1012.2 -
13/03:00pm 13.2 9.5 9.6 79 1.9 ENE 19 28 10 15 1013.4 1012.5 -
13/02:35pm 12.9 9.3 9.9 82 1.6 ENE 19 26 10 14 1013.7 1012.8 -
13/02:30pm 12.6 8.6 9.1 79 1.8 ENE 20 30 11 16 1013.8 1012.9 -

Latest Capital City Observations: Canberra | Sydney | Melbourne | Brisbane | Adelaide | Perth | Hobart | Darwin

Other formats

Comma delimited format used in spreadsheet applications
http://www.bom.gov.au/fwo/IDN60903/IDN60903.95716.axf

JavaScript Object Notation format (JSON) in row-major order
http://www.bom.gov.au/fwo/IDN60903/IDN60903.95716.json

Data quality

Most of these data are generated automatically and are frequently updated. Quality checks on data are not normally performed. It is possible for incorrect values to appear. Refer to information at About Latest Weather Observations and please check the disclaimer before using these data.